Time;durP1;ratioP1;P1;durP2;ratioP2;P2;SDS_P1;SDS_P2;PMS_P1;PMS_P2;Temp;Humidity;BMP_temperature;BMP_pressure;BME280_temperature;BME280_humidity;BME280_pressure;Samples;Min_cycle;Max_cycle;Signal;HPM_P1;HPM_P2
2022/08/26 00:01:48;;;;;;;10.95;2.70;;;;;;;19.40;100.00;98602.31;5132941;27;20127;-93
2022/08/26 00:04:14;;;;;;;10.52;2.60;;;;;;;18.97;100.00;98601.69;5110618;28;20098;-93
2022/08/26 00:06:42;;;;;;;12.23;2.85;;;;;;;20.04;100.00;98594.84;5093183;28;20023;-94
2022/08/26 00:09:08;;;;;;;12.05;3.15;;;;;;;18.99;100.00;98597.19;5084172;28;20638;-93
2022/08/26 00:11:35;;;;;;;14.05;2.83;;;;;;;18.96;100.00;98591.19;5109250;28;20027;-95
2022/08/26 00:14:00;;;;;;;10.00;2.83;;;;;;;19.05;100.00;98598.69;5091701;28;20027;-93
2022/08/26 00:16:28;;;;;;;11.43;3.20;;;;;;;18.69;100.00;98602.03;5088652;28;20035;-94
2022/08/26 00:18:54;;;;;;;10.82;3.20;;;;;;;18.90;100.00;98597.59;5104160;28;20094;-93
2022/08/26 00:21:20;;;;;;;10.50;3.10;;;;;;;19.21;100.00;98599.69;5093381;28;20047;-94
2022/08/26 00:23:46;;;;;;;8.82;2.75;;;;;;;18.79;100.00;98589.28;5090384;28;20063;-94
2022/08/26 00:26:12;;;;;;;10.93;3.00;;;;;;;19.08;100.00;98596.75;5080551;28;20122;-93
2022/08/26 00:28:38;;;;;;;9.82;2.70;;;;;;;19.16;100.00;98601.69;5090155;28;20038;-95
2022/08/26 00:31:03;;;;;;;9.10;3.03;;;;;;;19.49;100.00;98601.03;5087304;28;20806;-93
2022/08/26 00:33:29;;;;;;;11.05;2.63;;;;;;;19.23;100.00;98599.63;5080797;28;20598;-92
2022/08/26 00:35:55;;;;;;;8.38;2.60;;;;;;;19.46;100.00;98601.16;5108907;28;20607;-92
2022/08/26 00:38:21;;;;;;;10.57;2.58;;;;;;;19.23;100.00;98605.78;5104651;28;20094;-94
2022/08/26 00:40:49;;;;;;;9.57;2.45;;;;;;;19.63;100.00;98610.94;5089474;28;20671;-93
2022/08/26 00:43:14;;;;;;;8.45;2.35;;;;;;;19.44;100.00;98603.91;5107941;28;20028;-94
2022/08/26 00:45:49;;;;;;;9.57;2.65;;;;;;;19.68;100.00;98611.56;5076801;28;20032;-95
2022/08/26 00:48:18;;;;;;;13.15;2.42;;;;;;;19.35;100.00;98609.59;5087422;28;20513;-94
2022/08/26 00:50:53;;;;;;;12.82;2.55;;;;;;;19.17;100.00;98615.78;5089367;28;20038;-93
2022/08/26 00:53:20;;;;;;;8.70;2.20;;;;;;;19.52;100.00;98605.31;5089524;28;20038;-93
2022/08/26 00:55:56;;;;;;;7.47;1.98;;;;;;;19.93;100.00;98610.38;5099220;28;20047;-93
2022/08/26 00:58:24;;;;;;;8.43;2.10;;;;;;;20.23;100.00;98602.69;5081804;28;20043;-94
2022/08/26 01:00:50;;;;;;;9.52;2.20;;;;;;;20.17;100.00;98608.31;5088226;28;20042;-93
2022/08/26 01:03:18;;;;;;;8.68;1.65;;;;;;;19.67;100.00;98609.00;5107504;28;20044;-93
2022/08/26 01:05:45;;;;;;;7.13;1.88;;;;;;;19.98;100.00;98607.53;5091215;28;20031;-93
2022/08/26 01:08:11;;;;;;;8.20;1.77;;;;;;;19.76;100.00;98613.84;5107008;28;20031;-93
2022/08/26 01:10:36;;;;;;;5.60;1.70;;;;;;;19.20;100.00;98597.97;5107750;28;20031;-93
2022/08/26 01:13:08;;;;;;;7.90;1.90;;;;;;;19.47;100.00;98607.31;5085026;28;20027;-92
2022/08/26 01:15:38;;;;;;;8.20;1.65;;;;;;;19.72;100.00;98609.63;5107809;28;20023;-93
2022/08/26 01:18:06;;;;;;;8.93;1.83;;;;;;;19.31;100.00;98601.91;5106932;28;20039;-94
2022/08/26 01:20:47;;;;;;;8.07;1.90;;;;;;;19.26;100.00;98607.38;5090148;28;20032;-94
2022/08/26 01:23:14;;;;;;;8.95;1.98;;;;;;;19.40;100.00;98602.31;5107959;28;20104;-93
2022/08/26 01:25:45;;;;;;;9.50;1.70;;;;;;;18.71;100.00;98602.84;5091622;28;20850;-93
2022/08/26 01:28:15;;;;;;;5.90;1.40;;;;;;;18.94;100.00;98607.09;5096809;28;20027;-94
2022/08/26 01:30:43;;;;;;;8.18;1.65;;;;;;;19.30;100.00;98611.59;5109672;28;20093;-94
2022/08/26 01:33:13;;;;;;;7.72;1.52;;;;;;;20.38;100.00;98619.59;5084323;28;21109;-93
2022/08/26 01:35:39;;;;;;;8.95;1.60;;;;;;;19.92;100.00;98620.13;5076851;28;20448;-93
2022/08/26 01:38:05;;;;;;;8.32;1.67;;;;;;;19.13;100.00;98619.50;5085652;28;20031;-92
2022/08/26 01:40:36;;;;;;;9.48;1.50;;;;;;;19.18;100.00;98618.34;5106394;28;20031;-93
2022/08/26 01:43:04;;;;;;;9.48;1.48;;;;;;;19.76;100.00;98619.13;5091009;28;20027;-95
2022/08/26 01:45:33;;;;;;;9.25;1.58;;;;;;;19.12;100.00;98620.41;5089298;28;20035;-95
2022/08/26 01:48:02;;;;;;;9.57;1.70;;;;;;;19.40;100.00;98625.25;5086199;28;20038;-94
2022/08/26 01:50:31;;;;;;;11.18;2.13;;;;;;;19.65;100.00;98617.00;5102012;28;20552;-93
2022/08/26 01:53:01;;;;;;;9.13;2.17;;;;;;;19.42;100.00;98624.25;5084161;28;20020;-93
2022/08/26 01:55:28;;;;;;;8.00;1.80;;;;;;;19.40;100.00;98626.13;5100213;28;20499;-96
2022/08/26 01:57:56;;;;;;;6.90;1.70;;;;;;;19.47;100.00;98629.34;5089278;28;20033;-94
2022/08/26 02:00:23;;;;;;;10.95;2.10;;;;;;;19.48;100.00;98630.19;5096946;28;20020;-92
2022/08/26 02:03:15;;;;;;;8.38;1.85;;;;;;;19.42;100.00;98634.84;5081926;28;20031;-93
2022/08/26 02:05:39;;;;;;;8.95;1.80;;;;;;;18.79;100.00;98626.25;5113545;28;20088;-94
2022/08/26 02:08:16;;;;;;;8.23;2.00;;;;;;;19.26;100.00;98628.53;5133242;28;20039;-92
2022/08/26 02:10:42;;;;;;;8.30;1.77;;;;;;;19.49;100.00;98630.13;5111028;28;20031;-94
2022/08/26 02:13:10;;;;;;;6.95;1.70;;;;;;;19.43;100.00;98628.63;5088695;28;20023;-92
2022/08/26 02:15:39;;;;;;;8.00;1.85;;;;;;;19.68;100.00;98635.38;5113470;28;20083;-93
2022/08/26 02:18:06;;;;;;;8.13;1.80;;;;;;;20.07;100.00;98641.44;5128719;28;20051;-92
2022/08/26 02:20:32;;;;;;;11.68;1.90;;;;;;;19.76;100.00;98630.59;5111425;28;20116;-93
2022/08/26 02:22:58;;;;;;;9.20;1.63;;;;;;;19.52;100.00;98640.53;5089618;28;20535;-94
2022/08/26 02:25:50;;;;;;;7.22;1.75;;;;;;;19.77;100.00;98642.00;5087121;28;20027;-93
2022/08/26 02:28:17;;;;;;;8.85;1.92;;;;;;;20.40;100.00;98640.69;5098216;28;20027;-92
2022/08/26 02:30:44;;;;;;;7.03;1.60;;;;;;;19.30;100.00;98638.03;5091157;28;20024;-93
2022/08/26 02:33:09;;;;;;;7.93;1.50;;;;;;;19.48;100.00;98632.84;5101094;28;20024;-92
2022/08/26 02:35:36;;;;;;;7.55;1.65;;;;;;;19.54;100.00;98635.19;5106498;28;20133;-93
2022/08/26 02:38:04;;;;;;;9.05;1.60;;;;;;;19.77;100.00;98640.22;5102119;28;20047;-93
2022/08/26 02:40:34;;;;;;;7.53;1.58;;;;;;;19.35;100.00;98637.84;5088360;28;20055;-94
2022/08/26 02:43:03;;;;;;;5.97;1.58;;;;;;;19.09;100.00;98631.97;5085764;28;20044;-92
2022/08/26 02:45:29;;;;;;;7.43;1.27;;;;;;;18.53;100.00;98636.22;5086035;28;20024;-91
2022/08/26 02:47:56;;;;;;;6.80;1.50;;;;;;;19.56;100.00;98633.31;5086175;28;20114;-92
2022/08/26 02:50:24;;;;;;;6.80;1.13;;;;;;;19.59;100.00;98638.47;5107400;28;20027;-93
2022/08/26 02:52:50;;;;;;;8.70;1.60;;;;;;;19.31;100.00;98634.47;5088239;28;20035;-92
2022/08/26 02:55:15;;;;;;;5.35;1.30;;;;;;;19.33;100.00;98626.47;5083479;28;20937;-92
2022/08/26 02:57:41;;;;;;;8.20;1.25;;;;;;;19.24;100.00;98631.25;5084744;28;20517;-93
2022/08/26 03:00:09;;;;;;;4.18;1.00;;;;;;;20.00;100.00;98637.41;5108901;28;20057;-94
2022/08/26 03:02:35;;;;;;;6.45;1.30;;;;;;;19.40;100.00;98634.06;5102446;28;20031;-93
2022/08/26 03:05:01;;;;;;;7.75;1.40;;;;;;;19.55;100.00;98637.75;5075511;28;20050;-92
2022/08/26 03:07:26;;;;;;;6.22;1.20;;;;;;;19.38;100.00;98635.91;5100129;28;20027;-92
2022/08/26 03:09:52;;;;;;;4.57;1.00;;;;;;;19.25;100.00;98634.78;5107775;28;20110;-93
2022/08/26 03:12:19;;;;;;;5.45;1.00;;;;;;;19.50;100.00;98631.84;5104444;28;20089;-92
2022/08/26 03:14:45;;;;;;;7.68;1.20;;;;;;;19.14;100.00;98626.47;5106880;28;20028;-94
2022/08/26 03:17:11;;;;;;;6.32;0.77;;;;;;;19.47;100.00;98631.09;5103882;28;20032;-92
2022/08/26 03:19:37;;;;;;;5.70;1.23;;;;;;;19.72;100.00;98629.03;5095823;28;20024;-93
2022/08/26 03:22:02;;;;;;;8.05;1.20;;;;;;;19.76;100.00;98627.94;5106813;28;20483;-93
2022/08/26 03:24:28;;;;;;;6.30;1.05;;;;;;;19.54;100.00;98628.13;5083941;28;20723;-91
2022/08/26 03:26:53;;;;;;;5.90;0.93;;;;;;;19.23;100.00;98632.22;5096083;28;20036;-94
2022/08/26 03:32:08;;;;;;;5.70;1.10;;;;;;;19.87;100.00;98626.56;5106689;28;20038;-93
2022/08/26 03:34:37;;;;;;;8.20;1.30;;;;;;;18.81;100.00;98617.34;5100396;28;20167;-92
2022/08/26 03:37:02;;;;;;;5.78;1.05;;;;;;;18.46;100.00;98624.19;5086216;28;20176;-92
2022/08/26 03:39:28;;;;;;;5.07;1.00;;;;;;;19.82;100.00;98618.00;5087030;28;20463;-92
2022/08/26 03:41:54;;;;;;;8.00;1.25;;;;;;;18.82;100.00;98616.41;5089332;28;20514;-92
2022/08/26 03:44:20;;;;;;;7.32;1.00;;;;;;;18.55;100.00;98618.50;5087210;28;20032;-92
2022/08/26 03:46:46;;;;;;;5.43;1.08;;;;;;;18.71;100.00;98608.97;5107612;28;20034;-92
2022/08/26 03:49:11;;;;;;;6.75;1.02;;;;;;;18.38;100.00;98608.69;5108679;28;20032;-92
2022/08/26 03:51:37;;;;;;;4.32;0.80;;;;;;;18.46;100.00;98613.63;5103525;28;20032;-94
2022/08/26 03:54:04;;;;;;;4.45;0.88;;;;;;;19.34;100.00;98614.97;5087834;28;20058;-93
2022/08/26 03:56:32;;;;;;;5.63;1.02;;;;;;;20.03;100.00;98616.09;5084145;28;20530;-93
2022/08/26 03:58:59;;;;;;;5.78;1.17;;;;;;;19.24;100.00;98617.19;5074105;28;20028;-94
2022/08/26 04:01:24;;;;;;;6.47;0.80;;;;;;;19.75;100.00;98612.97;5087469;28;20066;-91
2022/08/26 04:03:59;;;;;;;6.10;1.00;;;;;;;19.22;100.00;98619.03;5086028;28;20065;-95
2022/08/26 04:06:30;;;;;;;4.65;0.93;;;;;;;19.16;100.00;98617.53;5084447;28;20035;-94
2022/08/26 04:08:59;;;;;;;6.32;0.90;;;;;;;18.98;100.00;98602.53;5087225;28;20031;-94
2022/08/26 04:11:30;;;;;;;6.57;1.30;;;;;;;19.67;100.00;98604.56;5086467;28;20186;-92
2022/08/26 04:14:00;;;;;;;5.45;1.13;;;;;;;19.18;100.00;98614.81;5093493;28;20085;-96
2022/08/26 04:16:28;;;;;;;5.43;1.00;;;;;;;18.28;100.00;98602.94;5109604;28;20040;-92
2022/08/26 04:18:55;;;;;;;4.57;1.05;;;;;;;18.76;100.00;98596.41;5109549;28;20062;-93
2022/08/26 04:21:20;;;;;;;6.93;1.05;;;;;;;19.08;100.00;98607.34;5089872;28;20411;-93
2022/08/26 04:23:46;;;;;;;7.50;1.20;;;;;;;19.24;100.00;98606.63;5114712;28;20035;-94
2022/08/26 04:26:12;;;;;;;7.43;1.23;;;;;;;18.62;100.00;98597.97;5134443;28;20034;-94
2022/08/26 04:28:37;;;;;;;6.38;1.10;;;;;;;18.84;100.00;98603.13;5122448;28;20036;-89
2022/08/26 04:31:03;;;;;;;5.15;0.93;;;;;;;18.51;100.00;98606.34;5102913;28;20020;-89
2022/08/26 04:33:28;;;;;;;6.53;1.05;;;;;;;18.87;100.00;98608.28;5084331;28;20369;-90
2022/08/26 04:36:02;;;;;;;4.47;0.90;;;;;;;19.22;100.00;98601.41;5106245;28;20119;-91
2022/08/26 04:38:29;;;;;;;7.30;1.00;;;;;;;19.52;100.00;98610.59;5116903;28;20034;-88
2022/08/26 04:40:55;;;;;;;6.53;1.08;;;;;;;19.51;100.00;98614.16;5109569;28;20027;-91
2022/08/26 04:43:20;;;;;;;5.10;0.98;;;;;;;19.50;100.00;98609.81;5109364;28;20104;-90
2022/08/26 04:45:46;;;;;;;5.45;1.00;;;;;;;19.36;100.00;98610.47;5082533;28;20024;-92
2022/08/26 04:48:12;;;;;;;6.53;1.00;;;;;;;19.21;100.00;98614.69;5092734;28;20632;-90
2022/08/26 04:50:38;;;;;;;4.22;1.08;;;;;;;18.99;100.00;98605.09;5107648;28;20036;-91
2022/08/26 04:53:03;;;;;;;4.82;1.08;;;;;;;19.36;100.00;98613.09;5103053;28;20150;-89
2022/08/26 04:55:29;;;;;;;6.57;1.35;;;;;;;19.57;100.00;98605.94;5085775;28;20162;-89
2022/08/26 04:57:56;;;;;;;3.63;0.82;;;;;;;18.67;100.00;98599.47;5081097;28;20403;-90
2022/08/26 05:00:22;;;;;;;6.75;1.02;;;;;;;19.99;100.00;98602.16;5084427;28;20028;-90
2022/08/26 05:02:47;;;;;;;5.97;1.10;;;;;;;19.02;100.00;98597.03;5077075;28;20471;-90
2022/08/26 05:05:13;;;;;;;5.90;1.08;;;;;;;19.64;100.00;98596.78;5089756;28;20023;-90
2022/08/26 05:07:40;;;;;;;7.75;1.17;;;;;;;19.64;100.00;98596.78;5109800;28;20023;-90
2022/08/26 05:10:06;;;;;;;5.72;1.30;;;;;;;18.99;100.00;98599.81;5103729;28;20046;-90
2022/08/26 05:12:33;;;;;;;5.57;1.20;;;;;;;19.43;100.00;98596.88;5103124;28;20027;-88
2022/08/26 05:14:58;;;;;;;8.65;1.48;;;;;;;19.20;100.00;98605.91;5083675;28;20433;-88
2022/08/26 05:17:26;;;;;;;9.13;1.58;;;;;;;19.98;100.00;98596.94;5083907;28;20028;-88
2022/08/26 05:19:52;;;;;;;6.80;1.20;;;;;;;19.97;100.00;98601.34;5083729;28;20106;-89
2022/08/26 05:22:17;;;;;;;5.78;1.20;;;;;;;19.41;100.00;98598.72;5081451;28;20023;-90
2022/08/26 05:24:45;;;;;;;5.57;1.08;;;;;;;20.18;100.00;98599.44;5100489;28;20031;-91
2022/08/26 05:27:12;;;;;;;7.30;1.40;;;;;;;20.48;100.00;98597.94;5077533;28;20513;-92
2022/08/26 05:29:39;;;;;;;5.45;1.17;;;;;;;19.62;100.00;98593.34;5086858;28;20031;-91
2022/08/26 05:32:05;;;;;;;7.95;1.15;;;;;;;20.61;100.00;98605.16;5089681;28;20074;-91
2022/08/26 05:34:31;;;;;;;8.38;1.30;;;;;;;20.30;100.00;98595.28;5084294;28;20040;-92
2022/08/26 05:36:57;;;;;;;6.03;1.17;;;;;;;20.40;100.00;98598.31;5085256;28;20027;-91
2022/08/26 05:39:23;;;;;;;7.72;1.20;;;;;;;19.54;100.00;98599.03;5084824;28;20029;-91
2022/08/26 05:41:49;;;;;;;6.45;1.38;;;;;;;20.72;100.00;98604.59;5079431;28;20034;-90
2022/08/26 05:44:17;;;;;;;6.40;1.20;;;;;;;20.24;100.00;98604.41;5109424;28;20368;-89
2022/08/26 05:46:44;;;;;;;5.70;1.20;;;;;;;20.10;100.00;98602.47;5103083;28;20061;-90
2022/08/26 05:49:12;;;;;;;6.63;1.42;;;;;;;20.08;100.00;98611.41;5084053;28;20035;-90
2022/08/26 05:51:38;;;;;;;8.40;1.55;;;;;;;21.09;100.00;98609.72;5086351;28;20666;-89
2022/08/26 05:54:07;;;;;;;6.75;1.20;;;;;;;20.52;100.00;98608.28;5081124;28;20052;-90
2022/08/26 05:56:32;;;;;;;5.43;1.23;;;;;;;21.09;100.00;98607.91;5083611;28;20060;-89
2022/08/26 05:59:01;;;;;;;9.95;1.30;;;;;;;20.38;100.00;98609.00;5081570;28;20042;-91
2022/08/26 06:01:27;;;;;;;9.20;1.30;;;;;;;20.87;100.00;98617.97;5092236;28;20024;-90
2022/08/26 06:03:58;;;;;;;8.15;1.35;;;;;;;20.61;100.00;98615.75;5087635;28;20143;-88
2022/08/26 06:06:30;;;;;;;6.50;1.17;;;;;;;21.24;100.00;98614.19;5086166;28;20036;-93
2022/08/26 06:12:32;;;;;;;6.57;1.27;;;;;;;20.88;100.00;98619.72;5037428;28;20119;-89
2022/08/26 06:14:58;;;;;;;6.80;1.30;;;;;;;21.07;100.00;98624.84;5021448;28;20053;-89
2022/08/26 06:17:24;;;;;;;8.15;1.30;;;;;;;21.46;100.00;98624.47;5042213;28;20072;-89
2022/08/26 06:19:49;;;;;;;7.50;1.15;;;;;;;21.41;100.00;98629.16;5014807;28;20025;-91
2022/08/26 06:27:43;;;;;;;11.27;1.70;;;;;;;21.41;100.00;98628.31;5036790;28;20043;-90
2022/08/26 06:30:09;;;;;;;9.43;1.48;;;;;;;21.96;100.00;98637.63;5022275;28;20033;-91
2022/08/26 06:32:35;;;;;;;7.20;1.10;;;;;;;22.11;100.00;98634.06;5020651;28;20056;-88
2022/08/26 06:35:00;;;;;;;9.90;1.38;;;;;;;21.16;100.00;98624.34;5015897;28;20029;-88
2022/08/26 06:37:26;;;;;;;9.40;1.63;;;;;;;21.69;100.00;98634.75;5023856;28;20033;-88
2022/08/26 06:39:51;;;;;;;9.00;1.63;;;;;;;21.71;100.00;98632.84;5040705;28;20338;-88
2022/08/26 06:42:21;;;;;;;5.50;1.38;;;;;;;21.39;100.00;98639.03;5062561;28;20036;-90
2022/08/26 06:44:46;;;;;;;7.97;1.38;;;;;;;20.98;100.00;98642.13;5100222;28;20016;-90
2022/08/26 06:47:14;;;;;;;8.45;1.58;;;;;;;20.60;100.00;98635.22;5102082;28;20042;-89
2022/08/26 06:49:39;;;;;;;6.88;1.45;;;;;;;21.06;100.00;98639.91;5087666;28;20028;-90
2022/08/26 06:52:05;;;;;;;6.95;1.50;;;;;;;20.31;100.00;98630.59;5081096;28;20395;-92
2022/08/26 06:54:30;;;;;;;7.30;1.40;;;;;;;20.75;100.00;98636.25;5090484;28;20040;-90
2022/08/26 06:56:56;;;;;;;8.40;1.67;;;;;;;21.00;100.00;98629.63;5107242;28;20032;-89
2022/08/26 06:59:22;;;;;;;7.40;1.33;;;;;;;20.35;100.00;98633.00;5095555;28;20536;-89
2022/08/26 07:01:47;;;;;;;6.68;1.60;;;;;;;20.53;100.00;98635.59;5104342;28;20050;-89
2022/08/26 07:04:15;;;;;;;6.30;1.30;;;;;;;19.98;100.00;98636.63;5079242;28;20027;-90
2022/08/26 07:06:45;;;;;;;7.90;1.60;;;;;;;20.75;100.00;98640.69;5104279;28;20036;-89
2022/08/26 07:09:14;;;;;;;8.02;1.65;;;;;;;20.41;100.00;98635.31;5088449;28;20019;-89
2022/08/26 07:11:40;;;;;;;8.35;1.83;;;;;;;20.42;100.00;98634.38;5075760;28;20024;-92
2022/08/26 07:14:06;;;;;;;11.05;1.50;;;;;;;21.08;100.00;98643.31;5083502;28;20028;-91
2022/08/26 07:16:33;;;;;;;9.30;1.70;;;;;;;21.18;100.00;98645.50;5087752;28;20028;-91
2022/08/26 07:18:58;;;;;;;10.95;1.60;;;;;;;21.22;100.00;98645.22;5100535;28;20031;-91
2022/08/26 07:21:24;;;;;;;7.25;1.67;;;;;;;20.93;100.00;98638.84;5091733;28;20191;-90
2022/08/26 07:23:51;;;;;;;6.75;1.30;;;;;;;21.49;100.00;98644.66;5100079;28;20070;-91
2022/08/26 07:26:20;;;;;;;7.43;1.60;;;;;;;21.69;100.00;98648.88;5090532;28;20448;-92
2022/08/26 07:28:49;;;;;;;7.30;1.50;;;;;;;21.62;100.00;98645.69;5076524;28;20038;-90
2022/08/26 07:31:16;;;;;;;7.32;1.70;;;;;;;20.99;100.00;98659.75;5081078;28;20084;-89
2022/08/26 07:33:42;;;;;;;5.97;1.52;;;;;;;21.07;100.00;98654.03;5090777;28;20688;-90
2022/08/26 07:36:09;;;;;;;8.50;1.50;;;;;;;22.19;100.00;98646.91;5089844;28;20039;-90
2022/08/26 07:38:37;;;;;;;7.30;1.60;;;;;;;22.68;100.00;98654.63;5091008;28;20035;-90
2022/08/26 07:41:03;;;;;;;8.90;1.50;;;;;;;22.21;100.00;98660.09;5091880;28;20043;-91
2022/08/26 07:43:29;;;;;;;7.30;1.40;;;;;;;23.60;100.00;98665.00;5108218;28;20054;-91
2022/08/26 07:45:55;;;;;;;8.70;1.67;;;;;;;22.85;100.00;98660.72;5082142;28;20560;-92
2022/08/26 07:48:22;;;;;;;8.52;1.40;;;;;;;23.08;100.00;98658.47;5083897;28;20032;-89
2022/08/26 07:50:47;;;;;;;8.55;1.77;;;;;;;22.45;100.00;98660.47;5084001;28;20023;-89
2022/08/26 07:53:14;;;;;;;9.45;1.30;;;;;;;22.81;100.00;98657.44;5104057;28;20099;-90
2022/08/26 07:55:40;;;;;;;9.52;1.40;;;;;;;23.40;100.00;98663.63;5103830;28;20170;-90
2022/08/26 07:58:06;;;;;;;7.90;1.30;;;;;;;23.14;100.00;98664.28;5087103;28;20026;-92
2022/08/26 08:00:32;;;;;;;7.80;1.42;;;;;;;24.14;100.00;98666.84;5083643;28;20035;-90
2022/08/26 08:02:59;;;;;;;8.73;1.70;;;;;;;24.53;100.00;98668.63;5100639;28;20024;-89
2022/08/26 08:05:25;;;;;;;7.07;1.70;;;;;;;22.39;100.00;98674.13;5083038;28;20028;-89
2022/08/26 08:07:51;;;;;;;7.63;1.80;;;;;;;21.14;100.00;98669.53;5090202;28;20043;-90
2022/08/26 08:10:22;;;;;;;7.80;1.70;;;;;;;22.13;100.00;98669.38;5109547;28;20044;-90
2022/08/26 08:12:49;;;;;;;7.60;1.60;;;;;;;22.58;100.00;98665.94;5089259;28;20064;-92
2022/08/26 08:15:17;;;;;;;8.27;1.70;;;;;;;23.32;100.00;98664.94;5108852;28;20068;-90
2022/08/26 08:17:42;;;;;;;8.63;1.70;;;;;;;21.79;100.00;98665.97;5111500;28;20039;-90
2022/08/26 08:20:09;;;;;;;8.00;1.80;;;;;;;21.65;100.00;98669.41;5085205;28;20035;-92
2022/08/26 08:22:35;;;;;;;7.95;1.63;;;;;;;22.54;100.00;98670.56;5082523;28;20056;-90
2022/08/26 08:25:01;;;;;;;9.70;1.63;;;;;;;22.44;100.00;98670.25;5088489;28;20028;-90
2022/08/26 08:27:27;;;;;;;6.68;1.48;;;;;;;22.65;100.00;98673.44;5107611;28;20027;-91
2022/08/26 08:29:53;;;;;;;8.25;1.58;;;;;;;22.39;100.00;98672.31;5101743;28;20091;-90
2022/08/26 08:32:20;;;;;;;7.43;1.50;;;;;;;22.16;100.00;98665.69;5101404;28;20027;-90
2022/08/26 08:34:45;;;;;;;8.18;1.60;;;;;;;22.45;100.00;98664.00;5086094;28;20030;-91
2022/08/26 08:37:11;;;;;;;11.10;1.73;;;;;;;22.35;100.00;98657.50;5097323;28;20122;-92
2022/08/26 08:39:37;;;;;;;7.30;1.40;;;;;;;21.98;100.00;98663.13;5100185;28;20028;-89
2022/08/26 08:42:18;;;;;;;9.05;1.48;;;;;;;22.42;100.00;98664.19;5086202;28;20061;-91
2022/08/26 08:44:47;;;;;;;6.80;1.25;;;;;;;22.23;100.00;98660.88;5086263;28;20040;-91
2022/08/26 08:47:37;;;;;;;7.68;1.35;;;;;;;24.22;100.00;98658.31;5100329;28;20088;-90
2022/08/26 08:50:21;;;;;;;8.77;1.40;;;;;;;25.02;100.00;98671.56;5084329;28;20766;-90
2022/08/26 08:52:55;;;;;;;7.97;1.33;;;;;;;25.27;100.00;98675.19;5088395;28;20036;-90
2022/08/26 08:55:35;;;;;;;4.97;1.10;;;;;;;24.91;100.00;98674.13;5109284;28;20545;-90
2022/08/26 08:58:15;;;;;;;6.72;1.08;;;;;;;25.55;100.00;98672.28;5091782;28;20711;-92
2022/08/26 09:00:53;;;;;;;7.10;1.33;;;;;;;23.56;100.00;98672.31;5117185;28;20091;-90
2022/08/26 09:03:56;;;;;;;6.93;1.30;;;;;;;22.88;100.00;98671.19;5121752;28;20040;-93
2022/08/26 09:06:24;;;;;;;6.10;1.45;;;;;;;22.05;100.00;98674.28;5094725;28;20032;-93
2022/08/26 09:08:51;;;;;;;5.05;1.20;;;;;;;22.63;100.00;98663.84;5113643;28;20125;-91
2022/08/26 09:11:19;;;;;;;6.53;1.15;;;;;;;22.78;100.00;98670.03;5105910;28;20007;-94
2022/08/26 09:13:51;;;;;;;6.18;1.30;;;;;;;22.44;100.00;98667.59;5102790;28;20031;-92
2022/08/26 09:16:23;;;;;;;5.47;1.20;;;;;;;22.44;100.00;98664.09;5092610;28;20065;-92
2022/08/26 09:19:25;;;;;;;7.35;1.45;;;;;;;22.53;100.00;98654.72;5088560;28;20067;-93
2022/08/26 09:21:55;;;;;;;9.10;1.50;;;;;;;23.01;100.00;98658.00;5085889;28;20556;-91
2022/08/26 09:24:24;;;;;;;6.30;1.35;;;;;;;23.24;100.00;98661.06;5101256;28;20019;-94
2022/08/26 09:26:51;;;;;;;7.72;1.40;;;;;;;23.42;100.00;98653.72;5076195;28;20031;-91
2022/08/26 09:29:22;;;;;;;7.97;1.50;;;;;;;23.72;100.00;98661.53;5101131;28;20027;-90
2022/08/26 09:31:48;;;;;;;8.07;1.63;;;;;;;23.97;100.00;98657.31;5081134;28;20023;-93
2022/08/26 09:34:25;;;;;;;8.30;1.58;;;;;;;23.49;100.00;98663.88;5098851;28;20659;-93
2022/08/26 09:36:56;;;;;;;5.82;1.23;;;;;;;23.42;100.00;98662.53;5078477;28;20035;-93
2022/08/26 09:39:42;;;;;;;8.80;1.45;;;;;;;23.64;100.00;98661.19;5085903;28;20028;-94
2022/08/26 09:42:08;;;;;;;8.65;1.25;;;;;;;22.87;100.00;98656.19;5114470;28;20030;-96
2022/08/26 09:45:00;;;;;;;8.05;1.08;;;;;;;22.82;100.00;98656.44;5093534;28;21290;-96
2022/08/26 09:48:00;;;;;;;7.50;1.50;;;;;;;23.48;100.00;98658.63;5101507;28;20546;-96
2022/08/26 09:50:38;;;;;;;10.38;1.20;;;;;;;24.27;100.00;98658.88;5087375;28;20071;-95
2022/08/26 09:53:26;;;;;;;5.88;1.30;;;;;;;23.62;99.28;98660.41;5100907;28;20495;-93
2022/08/26 09:56:11;;;;;;;9.70;1.20;;;;;;;23.69;100.00;98657.25;5107455;28;20046;-92
2022/08/26 09:58:41;;;;;;;8.75;1.40;;;;;;;24.03;100.00;98657.75;5086125;28;20032;-94
2022/08/26 10:01:26;;;;;;;7.93;1.42;;;;;;;23.93;100.00;98658.47;5089838;28;20027;-94
2022/08/26 10:03:52;;;;;;;4.93;1.10;;;;;;;23.84;100.00;98655.44;5092071;28;20027;-93
2022/08/26 10:06:18;;;;;;;5.35;1.08;;;;;;;24.07;100.00;98653.06;5104119;28;20031;-95
2022/08/26 10:08:51;;;;;;;6.03;1.10;;;;;;;23.88;100.00;98650.75;5081822;28;20031;-92
2022/08/26 10:11:25;;;;;;;12.43;1.95;;;;;;;24.08;100.00;98648.59;5085864;28;20024;-93
2022/08/26 10:14:01;;;;;;;5.50;1.60;;;;;;;24.28;100.00;98649.94;5082440;28;20070;-94
2022/08/26 10:16:44;;;;;;;6.47;1.20;;;;;;;24.95;96.71;98647.13;5101759;28;20150;-92
2022/08/26 10:19:17;;;;;;;5.22;1.02;;;;;;;23.79;100.00;98648.69;5102836;28;20054;-92
2022/08/26 10:22:03;;;;;;;6.45;1.23;;;;;;;25.54;92.14;98659.03;5106891;28;20124;-93
2022/08/26 10:24:39;;;;;;;6.38;1.20;;;;;;;25.80;99.35;98653.59;5107931;28;20118;-93
2022/08/26 10:27:23;;;;;;;7.13;1.25;;;;;;;28.17;88.35;98661.06;5090488;28;20049;-93
2022/08/26 10:29:54;;;;;;;6.05;1.00;;;;;;;26.17;97.95;98656.25;5108422;28;20023;-94
2022/08/26 10:32:26;;;;;;;5.80;1.10;;;;;;;26.24;99.61;98646.78;5090603;28;20560;-92
2022/08/26 10:34:52;;;;;;;6.45;1.20;;;;;;;26.26;94.15;98649.34;5090260;28;20045;-92
2022/08/26 10:37:22;;;;;;;4.22;1.15;;;;;;;26.12;90.45;98645.03;5108359;28;20031;-93
2022/08/26 10:39:57;;;;;;;5.97;1.10;;;;;;;25.53;89.64;98643.97;5105385;28;20023;-91
2022/08/26 10:42:29;;;;;;;6.75;1.08;;;;;;;26.92;100.00;98637.09;5087558;28;20092;-93
2022/08/26 10:45:01;;;;;;;7.28;1.35;;;;;;;28.11;87.65;98645.47;5090167;28;20036;-92
2022/08/26 10:47:38;;;;;;;7.78;1.27;;;;;;;27.30;86.96;98634.19;5089631;28;20035;-91
2022/08/26 10:50:07;;;;;;;8.32;1.08;;;;;;;28.60;82.75;98644.03;5096733;28;20086;-90
2022/08/26 10:52:36;;;;;;;5.28;0.98;;;;;;;27.27;79.48;98640.63;5088794;28;20118;-94
2022/08/26 10:55:28;;;;;;;6.25;1.20;;;;;;;27.88;88.68;98633.97;5088992;28;20040;-92
2022/08/26 10:58:24;;;;;;;5.13;1.10;;;;;;;28.78;85.86;98644.31;5090369;28;20027;-91
2022/08/26 11:04:22;;;;;;;6.60;1.27;;;;;;;28.71;81.41;98639.59;5102965;28;20034;-93
2022/08/26 11:06:48;;;;;;;5.88;1.20;;;;;;;26.17;96.16;98630.34;5088883;28;20035;-91
2022/08/26 11:09:43;;;;;;;7.97;1.77;;;;;;;26.64;93.93;98630.38;5089684;28;20023;-94
2022/08/26 11:12:29;;;;;;;7.05;1.42;;;;;;;26.61;86.49;98643.13;5094252;28;20082;-93
2022/08/26 11:14:55;;;;;;;8.77;1.70;;;;;;;25.84;83.93;98637.22;5109332;28;20026;-92
2022/08/26 11:17:43;;;;;;;5.75;1.23;;;;;;;26.26;86.57;98639.50;5118558;28;20051;-92
2022/08/26 11:20:32;;;;;;;6.97;1.70;;;;;;;26.31;94.19;98631.16;5089190;28;20126;-92
2022/08/26 11:23:21;;;;;;;8.25;1.50;;;;;;;26.32;89.67;98638.16;5096280;28;20506;-91
2022/08/26 11:26:05;;;;;;;5.72;1.33;;;;;;;26.72;93.85;98632.47;5114215;28;20036;-91
2022/08/26 11:28:36;;;;;;;5.78;1.50;;;;;;;27.30;87.17;98632.34;5118048;28;20110;-94
2022/08/26 11:31:04;;;;;;;5.95;1.80;;;;;;;27.22;98.05;98619.59;5105114;28;20027;-94
2022/08/26 11:34:00;;;;;;;5.75;1.23;;;;;;;26.73;91.67;98616.28;5084209;28;20036;-92
2022/08/26 11:36:40;;;;;;;8.45;1.38;;;;;;;27.36;91.05;98625.69;5100375;28;20027;-93
2022/08/26 11:39:12;;;;;;;7.00;1.42;;;;;;;26.94;91.05;98625.44;5089026;28;20390;-93
2022/08/26 11:41:42;;;;;;;7.83;1.40;;;;;;;26.99;89.02;98631.28;5078675;28;20055;-91
2022/08/26 11:44:08;;;;;;;8.48;1.65;;;;;;;26.16;89.43;98631.31;5084859;28;20032;-92
2022/08/26 11:46:36;;;;;;;6.80;1.20;;;;;;;26.14;92.98;98622.56;5101430;28;20655;-93
2022/08/26 11:49:05;;;;;;;6.95;1.08;;;;;;;26.14;95.88;98627.06;5084853;28;20036;-92
2022/08/26 11:51:31;;;;;;;7.80;1.70;;;;;;;25.58;94.23;98628.47;5076693;28;20123;-92
2022/08/26 11:54:19;;;;;;;9.80;1.65;;;;;;;27.12;90.53;98625.81;5086306;28;20059;-91